»·PEaware :: N292MC KBFL-KCMA

N292MC :: KBFL-KCMA

FLIGHT INFORMATION

Flight Status: Arrived
Operator: Privately registered:
United States
More flights under this callsign
Pilot: Maurice C. (12314)
Aircraft: Unknown
(KODI)
More flights by this aircraft type
Origin: KBFL Meadows
United States
Destination: KCMA Camarillo
United States
More flights between these airports :: More routes between these airports
Route: GMN FIM
File this flight plan on PilotEdge
Remarks:
Altitude:
(Current/Filed)
5,500ft
Speed:
(Current/Filed)
175kts
Departed: 02-Feb-20 09:29 AM
Arrived: 02-Feb-20 10:02 AM
Distance/Time
Traveled:
73nm/0:33
Distance/Time
To Go:
Arrived

Flight Plot

Page will automatically refresh every two minutes.


Map Options




Map Legend


Flown Route
Filed Route
Departure Airport
Arrival Airport
Navaid (VOR, NDB)
Fix

Horizontal Profiles

Position Reports

Time Latitude Longitude Heading Altitude Ground
Speed
02-Feb-20 09:16 35.429714 -119.046526 312 500ft 0kts
02-Feb-20 09:17 35.429714 -119.046526 312 500ft 0kts
02-Feb-20 09:18 35.429714 -119.046526 312 500ft 0kts
02-Feb-20 09:19 35.429715 -119.046526 312 500ft 0kts
02-Feb-20 09:20 35.429715 -119.046526 312 500ft 0kts
02-Feb-20 09:21 35.429718 -119.046530 312 500ft 0kts
02-Feb-20 09:22 35.429718 -119.046530 312 500ft 0kts
02-Feb-20 09:23 35.429718 -119.046530 312 500ft 0kts
02-Feb-20 09:24 35.429679 -119.046850 235 500ft 7kts
02-Feb-20 09:25 35.427083 -119.045780 137 500ft 22kts
02-Feb-20 09:26 35.425867 -119.044956 225 500ft 0kts
02-Feb-20 09:27 35.425495 -119.046052 303 500ft 16kts
02-Feb-20 09:28 35.438365 -119.060823 317 801ft 84kts
02-Feb-20 09:29 35.471883 -119.082484 13 1569ft 166kts
02-Feb-20 09:30 35.494758 -119.042008 112 2305ft 162kts
02-Feb-20 09:31 35.465505 -118.999107 134 3018ft 167kts
02-Feb-20 09:32 35.433044 -118.956763 134 3706ft 172kts
02-Feb-20 09:33 35.397903 -118.918409 167 4364ft 169kts
02-Feb-20 09:34 35.351549 -118.920682 177 5009ft 168kts
02-Feb-20 09:35 35.305318 -118.915438 176 5607ft 169kts
02-Feb-20 09:36 35.255832 -118.910097 176 5478ft 179kts
02-Feb-20 09:37 35.206314 -118.904631 176 5474ft 179kts
02-Feb-20 09:38 35.156908 -118.899215 177 5471ft 179kts
02-Feb-20 09:39 35.107335 -118.893758 177 5478ft 179kts
02-Feb-20 09:40 35.057724 -118.888338 177 5472ft 179kts
02-Feb-20 09:41 35.007980 -118.882904 177 5466ft 179kts
02-Feb-20 09:42 34.958147 -118.877467 177 5464ft 179kts
02-Feb-20 09:43 34.909203 -118.872098 177 5692ft 173kts
02-Feb-20 09:44 34.862980 -118.867003 177 6388ft 164kts
02-Feb-20 09:45 34.817876 -118.862230 177 7140ft 163kts
02-Feb-20 09:46 34.771927 -118.862227 186 7526ft 172kts
02-Feb-20 09:47 34.723382 -118.864960 186 7514ft 176kts
02-Feb-20 09:48 34.674594 -118.867616 185 7501ft 176kts
02-Feb-20 09:49 34.625959 -118.869774 184 7475ft 174kts
02-Feb-20 09:50 34.577546 -118.871630 183 7435ft 176kts
02-Feb-20 09:51 34.527565 -118.873469 185 7068ft 183kts
02-Feb-20 09:52 34.476073 -118.875766 184 6468ft 186kts
02-Feb-20 09:53 34.426095 -118.877885 184 5653ft 164kts
02-Feb-20 09:54 34.375225 -118.880302 184 4711ft 192kts
02-Feb-20 09:55 34.334673 -118.909792 240 3767ft 178kts
02-Feb-20 09:56 34.306272 -118.956172 231 3464ft 166kts
02-Feb-20 09:57 34.276185 -119.000980 232 2950ft 174kts
02-Feb-20 09:58 34.248385 -119.042112 231 2232ft 124kts
02-Feb-20 09:59 34.223526 -119.066462 202 641ft 124kts
02-Feb-20 10:00 34.213752 -119.085654 273 131ft 83kts
02-Feb-20 10:01 34.212947 -119.095451 201 79ft 0kts
02-Feb-20 10:02 34.211936 -119.095368 143 79ft 15kts
02-Feb-20 10:03 34.210516 -119.099134 165 79ft 10kts
02-Feb-20 10:04 34.210221 -119.099011 180 79ft 0kts
02-Feb-20 10:05 34.210221 -119.099011 180 79ft 0kts
02-Feb-20 10:06 34.210221 -119.099011 180 79ft 0kts
02-Feb-20 10:07 34.210221 -119.099011 180 79ft 0kts
02-Feb-20 10:08 34.210221 -119.099011 180 79ft 0kts
02-Feb-20 10:09 34.210221 -119.099011 180 79ft 0kts
02-Feb-20 10:10 34.210221 -119.099011 180 79ft 0kts

Navigation Log

Ident Type
Flight plan parsing failed, navigation log unavailable